SPC weather

La Palma Airport
Sta Cruz de la Palma, La Palma Island, Canary Islands, Spain

Public forecast

Using degrees Celsius for public forecast. Weather courtesy of forecast.io.

Current aviation weather report (METAR) for La Palma Airport

Retrieved 2019/10/23 09:30 UTC (12 minutes ago):

GCLA 230930Z 01009KT 340V060 9999 BKN060 22/13 Q1019

Aviation forecast (TAF) for La Palma Airport

Retrieved 2019/10/23 09:27 UTC (15 minutes ago):

TAF GCLA 230800Z 2309/2409 04008KT 9999 SCT045 TX24/2314Z TN18/2405Z